EDT,Max TemperatureF,Mean TemperatureF,Min TemperatureF,Max Dew PointF,MeanDew PointF,Min DewpointF,Max Humidity, Mean Humidity, Min Humidity, Max Sea Level PressureIn, Mean Sea Level PressureIn, Min Sea Level PressureIn, Max VisibilityMiles, Mean VisibilityMiles, Min VisibilityMiles, Max Wind SpeedMPH, Mean Wind SpeedMPH, Max Gust SpeedMPH,PrecipitationIn, CloudCover, Events, WindDirDegrees
2013-4-1,50,39,28,42,32,8,100,62,23,29.96,29.74,29.66,10,5,0,28,9,33,0.01,6,Fog-Rain,317
2013-4-2,43,35,26,17,11,7,68,46,24,30.14,30.05,29.97,10,10,10,23,11,31,0.00,4,,289
2013-4-3,44,35,25,16,10,5,58,42,25,30.40,30.24,30.14,10,10,10,23,10,31,0.00,2,,292
2013-4-4,51,37,22,18,14,9,68,43,18,30.41,30.25,30.03,10,10,10,16,4,23,0.00,0,,262
2013-4-5,59,43,27,20,17,9,69,43,17,30.10,29.95,29.83,10,10,10,22,9,30,0.00,0,,312
2013-4-6,52,40,28,18,12,6,51,35,18,30.34,30.24,30.11,10,10,10,26,7,33,0.00,0,,208
2013-4-7,66,55,43,39,28,15,59,44,28,30.17,30.02,29.89,10,10,10,26,11,36,T,4,,140
2013-4-8,74,56,38,45,40,36,86,58,29,30.10,29.99,29.88,10,10,10,16,4,21,0.00,3,,113
2013-4-9,81,68,55,49,43,36,72,47,21,30.03,29.94,29.83,10,10,10,17,6,24,T,2,,258
2013-4-10,82,70,58,61,54,47,90,66,42,29.93,29.85,29.77,10,8,1,46,3,58,1.06,6,Rain-Thunderstorm,294
2013-4-11,59,53,46,58,45,40,93,82,71,29.97,29.91,29.81,10,10,5,16,5,20,0.09,8,Rain,360
2013-4-12,49,47,44,46,43,40,93,85,76,29.88,29.73,29.66,10,8,2,20,11,28,0.54,8,Rain,90
2013-4-13,51,45,38,37,33,31,85,67,48,29.96,29.88,29.81,10,10,10,20,5,25,0.00,7,,262
2013-4-14,58,48,37,36,29,24,76,55,33,30.15,30.08,29.97,10,10,10,21,7,26,0.00,4,,271
2013-4-15,67,56,44,44,37,29,65,54,42,30.25,30.20,30.14,10,10,10,30,11,38,T,6,,106
2013-4-16,69,61,53,59,50,41,97,77,57,30.24,30.17,30.06,10,10,6,24,6,36,0.20,7,Rain-Thunderstorm,156
2013-4-17,68,58,47,59,38,30,80,53,26,30.30,30.22,30.14,10,10,2,12,4,17,0.00,3,Rain,342
2013-4-18,63,55,46,55,45,35,84,62,39,30.22,30.12,29.96,10,10,10,26,10,35,0.00,7,,95
2013-4-19,72,61,49,63,55,39,83,75,66,29.92,29.69,29.51,10,8,1,35,13,49,0.74,7,Rain,166
2013-4-20,52,43,34,36,26,17,61,47,32,30.40,30.03,29.77,10,10,10,28,14,38,T,5,,278
2013-4-21,53,41,29,27,20,18,72,49,26,30.62,30.54,30.42,10,10,10,14,4,17,0.00,0,,337
2013-4-22,59,46,33,28,25,21,75,51,26,30.60,30.52,30.41,10,10,10,17,7,24,0.00,0,,125
2013-4-23,59,50,41,40,33,27,67,54,40,30.43,30.27,30.08,10,10,10,13,5,17,0.00,5,,101
2013-4-24,71,57,43,58,46,33,84,66,47,30.08,29.91,29.70,10,8,1,36,9,47,0.26,5,Rain-Thunderstorm,177
2013-4-25,63,52,41,32,27,22,65,45,24,30.27,30.19,30.08,10,10,10,20,7,25,0.00,3,,279
2013-4-26,63,51,39,34,27,18,79,49,19,30.46,30.39,30.30,10,10,10,15,4,23,0.00,1,,285
2013-4-27,70,52,34,36,30,26,75,48,20,30.45,30.35,30.25,10,10,10,12,2,15,0.00,0,,196
2013-4-28,67,54,40,45,38,34,79,55,31,30.26,30.20,30.12,10,10,10,21,7,30,0.01,3,Rain,151
2013-4-29,56,54,51,54,49,35,96,73,50,30.13,30.10,30.06,10,5,2,17,8,24,0.24,8,Rain,88
2013-4-30,65,59,52,53,50,37,93,70,47,30.30,30.20,30.13,10,8,2,14,5,20,T,7,Rain,97